Airfield :
LOGIN :

Register | Disclaimer

   EN    FR    IT 

 










Legend :    VFR   Marginal VFR   IFR   Intensive IFR   Very Intensive IFR
Visi :
Ceiling :
>= 8 km
>= 3000ft
5 to 8 km
1000 to 3000 ft
1500m to 5 km
500 to 1000 ft
800 to 1500m
200 to 500 ft
< 800m
< 200 ft
Symbols :   Thunderstorms  Fog  Heavy snow  Heavy precipitations  Wind > 20 kt
SIGMETs :     Misc.  Thunderstorms  Icing  Turbulence  Mountain Waves  Volcanic Ashes






- Airport Elevation : 1090 ft
- IATA code : CFE


LFLC - Clermont-Ferrand Auvergne

CURRENT METAR :
  • 222130Z AUTO 28007KT 250V330 CAVOK 05/M01 Q1003 NOSIG

EXPIRED METARs :
  • 222100Z AUTO 28006KT 260V330 9999 FEW043 05/M01 Q1003 NOSIG
  • 222030Z AUTO 28009KT 9999 FEW050 05/M00 Q1003 NOSIG
  • 222000Z AUTO 30004KT 250V340 9999 FEW032 SCT050 05/M00 Q1003 NOSIG
  • 221930Z AUTO VRB03KT 9999 FEW031 SCT052 04/M01 Q1002 NOSIG
  • 221900Z AUTO 29004KT 250V360 9999 FEW022 SCT040 04/M01 Q1002 TEMPO 32015G25KT

TAF TAF LFLC
Valid from the 22 at 18:00 until the 23 at 18:00 UTC


221700Z 2218/2318 29008KT 9999 BKN040
PROB40
TEMPO 2218/2220 32015G25KT
BECMG 2302/2305 18010KT
TEMPO 2307/2311 18015G25KT -RA
FM231100 25015G25KT CAVOK
TEMPO 2311/2317 25020G35KT -SHRA BKN040TCU
PROB30
TEMPO 2312/2315 25030G50KT
ATIS : +33 4 73 62 74 38



MET'MAP, your aeronautical weather chart ! - Copyright ORBIFLY December 2007 - Disclaimer

ORBIFLY MET'MAP TEAM :

Programming & Development : Alexandra Zaïnal
Concept & original design : Baudouin d'Aumeries
Assistance for programming : Marc-Olivier Méhu
Technical & hardware support : Manuel Goepfert

Contact : metmap@orbifly.com




SOURCES & CREDITS :

   NOAA